sensor_id;sensor_type;location;lat;lon;timestamp;pressure;altitude;pressure_sealevel;temperature;humidity
9893;BME280;4985;49.092;8.542;2023-03-14T00:00:24;97614.25;;;15.51;52.73
9893;BME280;4985;49.092;8.542;2023-03-14T00:02:52;97620.59;;;15.50;52.75
9893;BME280;4985;49.092;8.542;2023-03-14T00:05:19;97607.81;;;15.47;52.76
9893;BME280;4985;49.092;8.542;2023-03-14T00:07:45;97613.44;;;15.51;52.84
9893;BME280;4985;49.092;8.542;2023-03-14T00:10:14;97628.56;;;15.50;52.85
9893;BME280;4985;49.092;8.542;2023-03-14T00:12:41;97619.00;;;15.49;52.90
9893;BME280;4985;49.092;8.542;2023-03-14T00:15:10;97622.69;;;15.48;52.87
9893;BME280;4985;49.092;8.542;2023-03-14T00:17:37;97620.84;;;15.49;52.88
9893;BME280;4985;49.092;8.542;2023-03-14T00:20:05;97613.94;;;15.48;52.96
9893;BME280;4985;49.092;8.542;2023-03-14T00:22:36;97622.91;;;15.47;52.88
9893;BME280;4985;49.092;8.542;2023-03-14T00:25:03;97618.44;;;15.47;52.93
9893;BME280;4985;49.092;8.542;2023-03-14T00:27:30;97614.72;;;15.48;52.92
9893;BME280;4985;49.092;8.542;2023-03-14T00:29:57;97602.28;;;15.49;52.93
9893;BME280;4985;49.092;8.542;2023-03-14T00:32:25;97599.63;;;15.49;52.87
9893;BME280;4985;49.092;8.542;2023-03-14T00:34:52;97603.06;;;15.49;52.83
9893;BME280;4985;49.092;8.542;2023-03-14T00:37:19;97609.44;;;15.48;52.84
9893;BME280;4985;49.092;8.542;2023-03-14T00:39:45;97600.66;;;15.48;52.84
9893;BME280;4985;49.092;8.542;2023-03-14T00:42:13;97599.63;;;15.49;52.84
9893;BME280;4985;49.092;8.542;2023-03-14T00:44:39;97603.06;;;15.49;52.88
9893;BME280;4985;49.092;8.542;2023-03-14T00:47:06;97591.72;;;15.37;52.81
9893;BME280;4985;49.092;8.542;2023-03-14T00:49:34;97611.03;;;15.49;52.86
9893;BME280;4985;49.092;8.542;2023-03-14T00:52:01;97607.56;;;15.49;52.88
9893;BME280;4985;49.092;8.542;2023-03-14T00:54:27;97610.22;;;15.49;52.87
9893;BME280;4985;49.092;8.542;2023-03-14T00:56:54;97617.38;;;15.48;52.87
9893;BME280;4985;49.092;8.542;2023-03-14T00:59:21;97616.34;;;15.49;52.85
9893;BME280;4985;49.092;8.542;2023-03-14T01:01:47;97626.12;;;15.49;52.90
9893;BME280;4985;49.092;8.542;2023-03-14T01:04:14;97628.78;;;15.49;52.84
9893;BME280;4985;49.092;8.542;2023-03-14T01:06:42;97640.22;;;15.49;52.85
9893;BME280;4985;49.092;8.542;2023-03-14T01:09:08;97639.16;;;15.50;52.85
9893;BME280;4985;49.092;8.542;2023-03-14T01:11:35;97633.84;;;15.50;52.78
9893;BME280;4985;49.092;8.542;2023-03-14T01:14:04;97626.38;;;15.47;52.80
9893;BME280;4985;49.092;8.542;2023-03-14T01:16:32;97632.00;;;15.51;52.84
9893;BME280;4985;49.092;8.542;2023-03-14T01:18:59;97624.06;;;15.51;52.85
9893;BME280;4985;49.092;8.542;2023-03-14T01:21:28;97613.44;;;15.51;52.81
9893;BME280;4985;49.092;8.542;2023-03-14T01:23:57;97624.06;;;15.51;52.79
9893;BME280;4985;49.092;8.542;2023-03-14T01:26:26;97620.38;;;15.52;52.76
9893;BME280;4985;49.092;8.542;2023-03-14T01:28:54;97603.66;;;15.51;52.74
9893;BME280;4985;49.092;8.542;2023-03-14T01:31:21;97589.38;;;15.52;52.77
9893;BME280;4985;49.092;8.542;2023-03-14T01:33:47;97571.81;;;15.51;52.75
9893;BME280;4985;49.092;8.542;2023-03-14T01:36:15;97570.81;;;15.52;52.72
9893;BME280;4985;49.092;8.542;2023-03-14T01:38:42;97568.97;;;15.53;52.68
9893;BME280;4985;49.092;8.542;2023-03-14T01:41:14;97565.16;;;15.49;52.74
9893;BME280;4985;49.092;8.542;2023-03-14T01:43:41;97578.78;;;15.52;52.77
9893;BME280;4985;49.092;8.542;2023-03-14T01:46:23;97562.84;;;15.52;52.74
9893;BME280;4985;49.092;8.542;2023-03-14T01:48:55;97552.94;;;15.48;52.73
9893;BME280;4985;49.092;8.542;2023-03-14T01:51:27;97548.19;;;15.50;52.82
9893;BME280;4985;49.092;8.542;2023-03-14T01:54:02;97542.09;;;15.49;52.90
9893;BME280;4985;49.092;8.542;2023-03-14T01:56:33;97535.19;;;15.48;52.87
9893;BME280;4985;49.092;8.542;2023-03-14T01:59:00;97532.53;;;15.48;52.84
9893;BME280;4985;49.092;8.542;2023-03-14T02:01:29;97533.56;;;15.47;52.83
9893;BME280;4985;49.092;8.542;2023-03-14T02:03:59;97524.56;;;15.48;52.81
9893;BME280;4985;49.092;8.542;2023-03-14T02:06:31;97521.94;;;15.48;52.78
9893;BME280;4985;49.092;8.542;2023-03-14T02:09:01;97519.28;;;15.48;52.76
9893;BME280;4985;49.092;8.542;2023-03-14T02:11:29;97514.78;;;15.49;52.79
9893;BME280;4985;49.092;8.542;2023-03-14T02:13:58;97513.97;;;15.48;52.79
9893;BME280;4985;49.092;8.542;2023-03-14T02:16:25;97519.28;;;15.48;52.83
9893;BME280;4985;49.092;8.542;2023-03-14T02:18:52;97529.88;;;15.48;52.79
9893;BME280;4985;49.092;8.542;2023-03-14T02:21:23;97528.03;;;15.49;52.82
9893;BME280;4985;49.092;8.542;2023-03-14T02:24:04;97532.28;;;15.50;52.77
9893;BME280;4985;49.092;8.542;2023-03-14T02:26:37;97532.28;;;15.50;52.81
9893;BME280;4985;49.092;8.542;2023-03-14T02:29:06;97522.72;;;15.49;52.85
9893;BME280;4985;49.092;8.542;2023-03-14T02:31:33;97512.94;;;15.49;52.80
9893;BME280;4985;49.092;8.542;2023-03-14T02:34:00;97498.63;;;15.50;52.74
9893;BME280;4985;49.092;8.542;2023-03-14T02:36:28;97495.97;;;15.50;52.79
9893;BME280;4985;49.092;8.542;2023-03-14T02:38:59;97503.94;;;15.50;52.78
9893;BME280;4985;49.092;8.542;2023-03-14T02:41:28;97491.47;;;15.51;52.81
9893;BME280;4985;49.092;8.542;2023-03-14T02:43:55;97489.06;;;15.49;52.84
9893;BME280;4985;49.092;8.542;2023-03-14T02:46:23;97487.47;;;15.48;52.82
9893;BME280;4985;49.092;8.542;2023-03-14T02:48:53;97484.00;;;15.48;52.88
9893;BME280;4985;49.092;8.542;2023-03-14T02:51:20;97465.94;;;15.44;52.86
9893;BME280;4985;49.092;8.542;2023-03-14T02:53:47;97477.91;;;15.47;52.88
9893;BME280;4985;49.092;8.542;2023-03-14T02:56:14;97467.03;;;15.49;52.87
9893;BME280;4985;49.092;8.542;2023-03-14T02:58:40;97474.44;;;15.47;52.92
9893;BME280;4985;49.092;8.542;2023-03-14T03:01:07;97463.84;;;15.47;52.91
9893;BME280;4985;49.092;8.542;2023-03-14T03:03:35;97470.75;;;15.48;52.92
9893;BME280;4985;49.092;8.542;2023-03-14T03:06:02;97459.56;;;15.46;52.97
9893;BME280;4985;49.092;8.542;2023-03-14T03:08:28;97459.56;;;15.46;52.96
9893;BME280;4985;49.092;8.542;2023-03-14T03:10:56;97443.44;;;15.47;52.98
9893;BME280;4985;49.092;8.542;2023-03-14T03:13:24;97446.31;;;15.46;53.00
9893;BME280;4985;49.092;8.542;2023-03-14T03:15:51;97449.78;;;15.46;53.03
9893;BME280;4985;49.092;8.542;2023-03-14T03:18:17;97436.53;;;15.46;53.03
9893;BME280;4985;49.092;8.542;2023-03-14T03:20:45;97419.81;;;15.46;52.97
9893;BME280;4985;49.092;8.542;2023-03-14T03:23:12;97417.97;;;15.46;52.95
9893;BME280;4985;49.092;8.542;2023-03-14T03:25:39;97415.31;;;15.46;53.00
9893;BME280;4985;49.092;8.542;2023-03-14T03:28:06;97414.25;;;15.47;52.95
9893;BME280;4985;49.092;8.542;2023-03-14T03:30:33;97405.50;;;15.47;53.02
9893;BME280;4985;49.092;8.542;2023-03-14T03:33:00;97394.91;;;15.47;52.95
9893;BME280;4985;49.092;8.542;2023-03-14T03:35:27;97396.75;;;15.46;52.98
9893;BME280;4985;49.092;8.542;2023-03-14T03:37:54;97396.50;;;15.48;52.98
9893;BME280;4985;49.092;8.542;2023-03-14T03:40:21;97397.56;;;15.47;53.00
9893;BME280;4985;49.092;8.542;2023-03-14T03:42:48;97390.41;;;15.47;53.00
9893;BME280;4985;49.092;8.542;2023-03-14T03:45:14;97399.16;;;15.48;52.99
9893;BME280;4985;49.092;8.542;2023-03-14T03:47:41;97388.78;;;15.46;53.08
9893;BME280;4985;49.092;8.542;2023-03-14T03:50:08;97386.13;;;15.46;53.06
9893;BME280;4985;49.092;8.542;2023-03-14T03:52:35;97389.59;;;15.47;53.04
9893;BME280;4985;49.092;8.542;2023-03-14T03:55:03;97385.09;;;15.47;53.06
9893;BME280;4985;49.092;8.542;2023-03-14T03:57:30;97372.88;;;15.46;53.06
9893;BME280;4985;49.092;8.542;2023-03-14T03:59:56;97368.38;;;15.47;53.03
9893;BME280;4985;49.092;8.542;2023-03-14T04:02:23;97356.97;;;15.46;53.07
9893;BME280;4985;49.092;8.542;2023-03-14T04:04:50;97363.87;;;15.47;53.03
9893;BME280;4985;49.092;8.542;2023-03-14T04:07:16;97365.72;;;15.47;53.07
9893;BME280;4985;49.092;8.542;2023-03-14T04:09:43;97372.88;;;15.46;53.06
9893;BME280;4985;49.092;8.542;2023-03-14T04:12:11;97358.81;;;15.46;53.14
9893;BME280;4985;49.092;8.542;2023-03-14T04:14:38;97352.72;;;15.45;53.07
9893;BME280;4985;49.092;8.542;2023-03-14T04:17:06;97355.38;;;15.45;53.16
9893;BME280;4985;49.092;8.542;2023-03-14T04:19:33;97350.88;;;15.46;53.12
9893;BME280;4985;49.092;8.542;2023-03-14T04:21:59;97353.53;;;15.46;53.10
9893;BME280;4985;49.092;8.542;2023-03-14T04:24:26;97354.31;;;15.46;53.13
9893;BME280;4985;49.092;8.542;2023-03-14T04:26:52;97351.69;;;15.46;53.09
9893;BME280;4985;49.092;8.542;2023-03-14T04:29:21;97354.31;;;15.46;53.13
9893;BME280;4985;49.092;8.542;2023-03-14T04:31:47;97352.72;;;15.45;53.10
9893;BME280;4985;49.092;8.542;2023-03-14T04:34:14;97344.78;;;15.45;53.10
9893;BME280;4985;49.092;8.542;2023-03-14T04:36:40;97341.56;;;15.43;53.10
9893;BME280;4985;49.092;8.542;2023-03-14T04:39:07;97343.72;;;15.46;53.12
9893;BME280;4985;49.092;8.542;2023-03-14T04:41:33;97336.81;;;15.45;53.12
9893;BME280;4985;49.092;8.542;2023-03-14T04:44:00;97335.78;;;15.46;53.11
9893;BME280;4985;49.092;8.542;2023-03-14T04:46:28;97323.56;;;15.45;53.09
9893;BME280;4985;49.092;8.542;2023-03-14T04:48:54;97333.13;;;15.46;53.08
9893;BME280;4985;49.092;8.542;2023-03-14T04:51:22;97325.16;;;15.46;53.12
9893;BME280;4985;49.092;8.542;2023-03-14T04:53:52;97323.56;;;15.45;53.11
9893;BME280;4985;49.092;8.542;2023-03-14T04:56:19;97306.03;;;15.44;53.11
9893;BME280;4985;49.092;8.542;2023-03-14T04:58:45;97327.25;;;15.44;53.12
9893;BME280;4985;49.092;8.542;2023-03-14T05:01:12;97306.03;;;15.44;53.12
9893;BME280;4985;49.092;8.542;2023-03-14T05:03:40;97306.84;;;15.44;53.12
9893;BME280;4985;49.092;8.542;2023-03-14T05:06:07;97306.03;;;15.44;53.12
9893;BME280;4985;49.092;8.542;2023-03-14T05:08:34;97300.75;;;15.44;53.10
9893;BME280;4985;49.092;8.542;2023-03-14T05:11:00;97291.44;;;15.41;53.12
9893;BME280;4985;49.092;8.542;2023-03-14T05:13:28;97277.38;;;15.41;53.11
9893;BME280;4985;49.092;8.542;2023-03-14T05:16:03;97288.53;;;15.43;53.13
9893;BME280;4985;49.092;8.542;2023-03-14T05:18:29;97290.13;;;15.44;53.14
9893;BME280;4985;49.092;8.542;2023-03-14T05:20:57;97288.53;;;15.43;53.14
9893;BME280;4985;49.092;8.542;2023-03-14T05:23:24;97285.88;;;15.43;53.13
9893;BME280;4985;49.092;8.542;2023-03-14T05:25:51;97285.88;;;15.43;53.12
9893;BME280;4985;49.092;8.542;2023-03-14T05:28:17;97290.13;;;15.44;53.10
9893;BME280;4985;49.092;8.542;2023-03-14T05:30:44;97294.41;;;15.45;53.11
9893;BME280;4985;49.092;8.542;2023-03-14T05:33:10;97282.19;;;15.44;53.09
9893;BME280;4985;49.092;8.542;2023-03-14T05:35:37;97288.53;;;15.43;53.17
9893;BME280;4985;49.092;8.542;2023-03-14T05:38:05;97280.59;;;15.43;53.13
9893;BME280;4985;49.092;8.542;2023-03-14T05:40:31;97286.94;;;15.42;53.13
9893;BME280;4985;49.092;8.542;2023-03-14T05:42:58;97282.44;;;15.42;53.13
9893;BME280;4985;49.092;8.542;2023-03-14T05:45:25;97281.63;;;15.42;53.15
9893;BME280;4985;49.092;8.542;2023-03-14T05:47:51;97284.28;;;15.42;53.15
9893;BME280;4985;49.092;8.542;2023-03-14T05:50:18;97274.47;;;15.42;53.16
9893;BME280;4985;49.092;8.542;2023-03-14T05:52:44;97275.53;;;15.41;53.17
9893;BME280;4985;49.092;8.542;2023-03-14T05:55:12;97273.69;;;15.42;53.15
9893;BME280;4985;49.092;8.542;2023-03-14T05:57:39;97269.97;;;15.43;53.19
9893;BME280;4985;49.092;8.542;2023-03-14T06:00:07;97273.69;;;15.42;53.18
9893;BME280;4985;49.092;8.542;2023-03-14T06:02:33;97273.94;;;15.40;53.23
9893;BME280;4985;49.092;8.542;2023-03-14T06:05:00;97265.16;;;15.40;53.24
9893;BME280;4985;49.092;8.542;2023-03-14T06:07:26;97272.28;;;15.39;53.22
9893;BME280;4985;49.092;8.542;2023-03-14T06:09:53;97273.09;;;15.40;53.25
9893;BME280;4985;49.092;8.542;2023-03-14T06:12:21;97275.75;;;15.40;53.22
9893;BME280;4985;49.092;8.542;2023-03-14T06:14:47;97267.00;;;15.39;53.21
9893;BME280;4985;49.092;8.542;2023-03-14T06:17:14;97264.34;;;15.39;53.23
9893;BME280;4985;49.092;8.542;2023-03-14T06:19:41;97269.62;;;15.39;53.25
9893;BME280;4985;49.092;8.542;2023-03-14T06:22:07;97263.31;;;15.40;53.23
9893;BME280;4985;49.092;8.542;2023-03-14T06:24:34;97272.06;;;15.41;53.19
9893;BME280;4985;49.092;8.542;2023-03-14T06:27:01;97277.38;;;15.41;53.21
9893;BME280;4985;49.092;8.542;2023-03-14T06:29:29;97271.28;;;15.40;53.20
9893;BME280;4985;49.092;8.542;2023-03-14T06:31:56;97278.19;;;15.41;53.19
9893;BME280;4985;49.092;8.542;2023-03-14T06:34:22;97280.03;;;15.41;53.21
9893;BME280;4985;49.092;8.542;2023-03-14T06:36:49;97270.22;;;15.41;53.18
9893;BME280;4985;49.092;8.542;2023-03-14T06:39:16;97279.22;;;15.40;53.18
9893;BME280;4985;49.092;8.542;2023-03-14T06:41:42;97280.03;;;15.41;53.19
9893;BME280;4985;49.092;8.542;2023-03-14T06:44:09;97274.94;;;15.39;53.18
9893;BME280;4985;49.092;8.542;2023-03-14T06:46:37;97276.56;;;15.40;53.21
9893;BME280;4985;49.092;8.542;2023-03-14T06:49:03;97282.69;;;15.41;53.19
9893;BME280;4985;49.092;8.542;2023-03-14T06:51:30;97281.63;;;15.42;53.16
9893;BME280;4985;49.092;8.542;2023-03-14T06:53:56;97289.59;;;15.42;53.16
9893;BME280;4985;49.092;8.542;2023-03-14T06:56:23;97299.16;;;15.43;53.15
9893;BME280;4985;49.092;8.542;2023-03-14T06:58:49;97300.75;;;15.44;53.15
9893;BME280;4985;49.092;8.542;2023-03-14T07:01:20;97295.44;;;15.44;53.15
9893;BME280;4985;49.092;8.542;2023-03-14T07:03:48;97311.34;;;15.44;53.15
9893;BME280;4985;49.092;8.542;2023-03-14T07:06:15;97293.84;;;15.43;53.16
9893;BME280;4985;49.092;8.542;2023-03-14T07:08:42;97308.16;;;15.42;53.16
9893;BME280;4985;49.092;8.542;2023-03-14T07:11:08;97314.25;;;15.42;53.17
9893;BME280;4985;49.092;8.542;2023-03-14T07:13:36;97307.09;;;15.43;53.17
9893;BME280;4985;49.092;8.542;2023-03-14T07:16:03;97317.69;;;15.43;53.18
9893;BME280;4985;49.092;8.542;2023-03-14T07:18:29;97325.66;;;15.43;53.17
9893;BME280;4985;49.092;8.542;2023-03-14T07:20:57;97328.06;;;15.44;53.17
9893;BME280;4985;49.092;8.542;2023-03-14T07:23:24;97333.34;;;15.44;53.17
9893;BME280;4985;49.092;8.542;2023-03-14T07:25:51;97328.88;;;15.45;53.14
9893;BME280;4985;49.092;8.542;2023-03-14T07:28:18;97328.88;;;15.45;53.12
9893;BME280;4985;49.092;8.542;2023-03-14T07:30:46;97338.41;;;15.46;53.12
9893;BME280;4985;49.092;8.542;2023-03-14T07:33:12;97343.72;;;15.46;53.12
9893;BME280;4985;49.092;8.542;2023-03-14T07:35:39;97337.88;;;15.44;53.13
9893;BME280;4985;49.092;8.542;2023-03-14T07:38:07;97352.72;;;15.45;53.14
9893;BME280;4985;49.092;8.542;2023-03-14T07:40:33;97342.13;;;15.45;53.14
9893;BME280;4985;49.092;8.542;2023-03-14T07:43:00;97346.38;;;15.46;53.11
9893;BME280;4985;49.092;8.542;2023-03-14T07:45:27;97339.47;;;15.45;53.12
9893;BME280;4985;49.092;8.542;2023-03-14T07:47:54;97344.78;;;15.45;53.14
9893;BME280;4985;49.092;8.542;2023-03-14T07:50:22;97338.66;;;15.44;53.16
9893;BME280;4985;49.092;8.542;2023-03-14T07:52:49;97337.88;;;15.44;53.16
9893;BME280;4985;49.092;8.542;2023-03-14T07:55:17;97347.41;;;15.45;53.16
9893;BME280;4985;49.092;8.542;2023-03-14T07:57:44;97343.97;;;15.44;53.16
9893;BME280;4985;49.092;8.542;2023-03-14T08:00:11;97343.16;;;15.44;53.17
9893;BME280;4985;49.092;8.542;2023-03-14T08:02:39;97350.06;;;15.45;53.17
9893;BME280;4985;49.092;8.542;2023-03-14T08:05:06;97343.16;;;15.44;53.17
9893;BME280;4985;49.092;8.542;2023-03-14T08:07:33;97335.13;;;15.39;53.17
9893;BME280;4985;49.092;8.542;2023-03-14T08:09:59;97337.88;;;15.44;53.17
9893;BME280;4985;49.092;8.542;2023-03-14T08:12:27;97332.56;;;15.44;53.18
9893;BME280;4985;49.092;8.542;2023-03-14T08:14:54;97332.81;;;15.42;53.19
9893;BME280;4985;49.092;8.542;2023-03-14T08:17:20;97324.59;;;15.44;53.21
9893;BME280;4985;49.092;8.542;2023-03-14T08:19:47;97319.53;;;15.42;53.22
9893;BME280;4985;49.092;8.542;2023-03-14T08:22:13;97315.06;;;15.43;53.22
9893;BME280;4985;49.092;8.542;2023-03-14T08:24:40;97325.66;;;15.43;53.22
9893;BME280;4985;49.092;8.542;2023-03-14T08:27:07;97320.34;;;15.43;53.25
9893;BME280;4985;49.092;8.542;2023-03-14T08:29:35;97320.34;;;15.43;53.26
9893;BME280;4985;49.092;8.542;2023-03-14T08:32:01;97325.66;;;15.43;53.27
9893;BME280;4985;49.092;8.542;2023-03-14T08:34:28;97330.97;;;15.43;53.29
9893;BME280;4985;49.092;8.542;2023-03-14T08:36:55;97325.66;;;15.43;53.31
9893;BME280;4985;49.092;8.542;2023-03-14T08:39:22;97337.88;;;15.44;53.32
9893;BME280;4985;49.092;8.542;2023-03-14T08:41:49;97344.22;;;15.43;53.34
9893;BME280;4985;49.092;8.542;2023-03-14T08:44:15;97341.56;;;15.43;53.34
9893;BME280;4985;49.092;8.542;2023-03-14T08:46:43;97336.25;;;15.43;53.36
9893;BME280;4985;49.092;8.542;2023-03-14T08:49:10;97343.16;;;15.44;53.37
9893;BME280;4985;49.092;8.542;2023-03-14T08:51:36;97333.59;;;15.43;53.40
9893;BME280;4985;49.092;8.542;2023-03-14T08:54:03;97345.25;;;15.42;53.40
9893;BME280;4985;49.092;8.542;2023-03-14T08:56:30;97335.47;;;15.42;53.41
9893;BME280;4985;49.092;8.542;2023-03-14T08:58:56;97351.38;;;15.42;53.41
9893;BME280;4985;49.092;8.542;2023-03-14T09:01:23;97351.13;;;15.44;53.41
9893;BME280;4985;49.092;8.542;2023-03-14T09:03:52;97356.19;;;15.46;53.41
9893;BME280;4985;49.092;8.542;2023-03-14T09:06:19;97345.56;;;15.46;53.39
9893;BME280;4985;49.092;8.542;2023-03-14T09:08:45;97353.28;;;15.47;53.39
9893;BME280;4985;49.092;8.542;2023-03-14T09:11:13;97359.62;;;15.46;53.41
9893;BME280;4985;49.092;8.542;2023-03-14T09:13:40;97358.59;;;15.47;53.40
9893;BME280;4985;49.092;8.542;2023-03-14T09:16:08;97365.72;;;15.47;53.40
9893;BME280;4985;49.092;8.542;2023-03-14T09:18:35;97366.53;;;15.47;53.39
9893;BME280;4985;49.092;8.542;2023-03-14T09:21:04;97370.78;;;15.48;53.38
9893;BME280;4985;49.092;8.542;2023-03-14T09:23:30;97380.03;;;15.46;53.39
9893;BME280;4985;49.092;8.542;2023-03-14T09:25:57;97388.53;;;15.48;53.39
9893;BME280;4985;49.092;8.542;2023-03-14T09:28:25;97390.41;;;15.47;53.39
9893;BME280;4985;49.092;8.542;2023-03-14T09:30:52;97392.00;;;15.48;53.40
9893;BME280;4985;49.092;8.542;2023-03-14T09:33:20;97389.34;;;15.48;53.38
9893;BME280;4985;49.092;8.542;2023-03-14T09:35:46;97393.59;;;15.49;53.38
9893;BME280;4985;49.092;8.542;2023-03-14T09:38:14;97397.31;;;15.48;53.38
9893;BME280;4985;49.092;8.542;2023-03-14T09:40:41;97389.84;;;15.45;53.38
9893;BME280;4985;49.092;8.542;2023-03-14T09:43:09;97389.91;;;15.50;53.37
9893;BME280;4985;49.092;8.542;2023-03-14T09:45:39;97399.72;;;15.50;53.39
9893;BME280;4985;49.092;8.542;2023-03-14T09:48:12;97406.62;;;15.51;53.36
9893;BME280;4985;49.092;8.542;2023-03-14T09:50:43;97389.91;;;15.50;53.37
9893;BME280;4985;49.092;8.542;2023-03-14T09:53:14;97389.69;;;15.52;53.36
9893;BME280;4985;49.092;8.542;2023-03-14T09:55:42;97379.78;;;15.47;53.38
9893;BME280;4985;49.092;8.542;2023-03-14T09:58:11;97399.47;;;15.51;53.39
9893;BME280;4985;49.092;8.542;2023-03-14T10:00:38;97398.66;;;15.51;53.40
9893;BME280;4985;49.092;8.542;2023-03-14T10:03:21;97402.13;;;15.51;53.40
9893;BME280;4985;49.092;8.542;2023-03-14T10:05:48;97401.31;;;15.51;53.40
9893;BME280;4985;49.092;8.542;2023-03-14T10:08:16;97415.97;;;15.53;53.37
9893;BME280;4985;49.092;8.542;2023-03-14T10:10:42;97423.13;;;15.53;53.38
9893;BME280;4985;49.092;8.542;2023-03-14T10:13:14;97421.50;;;15.52;53.39
9893;BME280;4985;49.092;8.542;2023-03-14T10:15:47;97419.66;;;15.52;53.41
9893;BME280;4985;49.092;8.542;2023-03-14T10:18:14;97427.63;;;15.52;53.40
9893;BME280;4985;49.092;8.542;2023-03-14T10:20:42;97422.31;;;15.52;53.44
9893;BME280;4985;49.092;8.542;2023-03-14T10:23:23;97425.78;;;15.53;53.45
9893;BME280;4985;49.092;8.542;2023-03-14T10:26:00;97422.31;;;15.52;53.47
9893;BME280;4985;49.092;8.542;2023-03-14T10:28:31;97420.47;;;15.53;53.48
9893;BME280;4985;49.092;8.542;2023-03-14T10:30:59;97421.28;;;15.53;53.49
9893;BME280;4985;49.092;8.542;2023-03-14T10:33:28;97424.72;;;15.54;53.49
9893;BME280;4985;49.092;8.542;2023-03-14T10:35:58;97424.72;;;15.54;53.50
9893;BME280;4985;49.092;8.542;2023-03-14T10:38:29;97421.81;;;15.55;53.50
9893;BME280;4985;49.092;8.542;2023-03-14T10:40:57;97432.69;;;15.54;53.53
9893;BME280;4985;49.092;8.542;2023-03-14T10:43:25;97426.56;;;15.53;53.52
9893;BME280;4985;49.092;8.542;2023-03-14T10:45:55;97432.44;;;15.55;53.53
9893;BME280;4985;49.092;8.542;2023-03-14T10:48:29;97436.69;;;15.56;53.52
9893;BME280;4985;49.092;8.542;2023-03-14T10:51:02;97433.25;;;15.56;53.53
9893;BME280;4985;49.092;8.542;2023-03-14T10:53:38;97423.34;;;15.51;53.54
9893;BME280;4985;49.092;8.542;2023-03-14T10:56:06;97442.00;;;15.56;53.53
9893;BME280;4985;49.092;8.542;2023-03-14T10:58:37;97442.00;;;15.56;53.52
9893;BME280;4985;49.092;8.542;2023-03-14T11:01:16;97442.81;;;15.57;53.52
9893;BME280;4985;49.092;8.542;2023-03-14T11:03:52;97445.22;;;15.58;53.52
9893;BME280;4985;49.092;8.542;2023-03-14T11:06:24;97451.56;;;15.57;53.54
9893;BME280;4985;49.092;8.542;2023-03-14T11:09:02;97452.94;;;15.60;53.50
9893;BME280;4985;49.092;8.542;2023-03-14T11:11:32;97441.50;;;15.59;53.49
9893;BME280;4985;49.092;8.542;2023-03-14T11:14:08;97452.12;;;15.59;53.50
9893;BME280;4985;49.092;8.542;2023-03-14T11:16:47;97465.38;;;15.59;53.50
9893;BME280;4985;49.092;8.542;2023-03-14T11:19:46;97465.38;;;15.59;53.49
9893;BME280;4985;49.092;8.542;2023-03-14T11:22:21;97459.88;;;15.61;53.49
9893;BME280;4985;49.092;8.542;2023-03-14T11:25:18;97465.16;;;15.61;53.49
9893;BME280;4985;49.092;8.542;2023-03-14T11:27:55;97468.63;;;15.61;53.47
9893;BME280;4985;49.092;8.542;2023-03-14T11:30:34;97477.63;;;15.60;53.50
9893;BME280;4985;49.092;8.542;2023-03-14T11:33:04;97486.37;;;15.61;53.52
9893;BME280;4985;49.092;8.542;2023-03-14T11:35:38;97479.47;;;15.60;53.53
9893;BME280;4985;49.092;8.542;2023-03-14T11:38:19;97496.19;;;15.60;53.53
9893;BME280;4985;49.092;8.542;2023-03-14T11:40:53;97488.22;;;15.60;53.54
9893;BME280;4985;49.092;8.542;2023-03-14T11:43:25;97475.44;;;15.57;53.55
9893;BME280;4985;49.092;8.542;2023-03-14T11:45:57;97480.28;;;15.60;53.54
9893;BME280;4985;49.092;8.542;2023-03-14T11:48:35;97493.53;;;15.60;53.54
9893;BME280;4985;49.092;8.542;2023-03-14T11:51:08;97490.88;;;15.60;53.56
9893;BME280;4985;49.092;8.542;2023-03-14T11:53:50;97498.84;;;15.60;53.59
9893;BME280;4985;49.092;8.542;2023-03-14T11:56:24;97508.66;;;15.60;53.62
9893;BME280;4985;49.092;8.542;2023-03-14T11:58:57;97512.91;;;15.61;53.62
9893;BME280;4985;49.092;8.542;2023-03-14T12:01:32;97516.59;;;15.60;53.63
9893;BME280;4985;49.092;8.542;2023-03-14T12:04:03;97542.06;;;15.61;53.66
9893;BME280;4985;49.092;8.542;2023-03-14T12:06:40;97556.59;;;15.58;53.70
9893;BME280;4985;49.092;8.542;2023-03-14T12:09:11;97579.66;;;15.58;53.73
9893;BME280;4985;49.092;8.542;2023-03-14T12:11:43;97594.75;;;15.57;53.74
9893;BME280;4985;49.092;8.542;2023-03-14T12:14:20;97609.06;;;15.56;53.75
9893;BME280;4985;49.092;8.542;2023-03-14T12:16:48;97629.72;;;15.54;53.78
9893;BME280;4985;49.092;8.542;2023-03-14T12:19:37;97640.31;;;15.54;53.78
9893;BME280;4985;49.092;8.542;2023-03-14T12:22:18;97654.63;;;15.53;53.80
9893;BME280;4985;49.092;8.542;2023-03-14T12:24:50;97678.50;;;15.53;53.82
9893;BME280;4985;49.092;8.542;2023-03-14T12:27:47;97682.75;;;15.54;53.82
9893;BME280;4985;49.092;8.542;2023-03-14T12:30:24;97688.88;;;15.55;53.81
9893;BME280;4985;49.092;8.542;2023-03-14T12:33:18;97699.72;;;15.53;53.81
9893;BME280;4985;49.092;8.542;2023-03-14T12:35:47;97697.84;;;15.54;53.78
9893;BME280;4985;49.092;8.542;2023-03-14T12:38:17;97705.56;;;15.55;53.77
9893;BME280;4985;49.092;8.542;2023-03-14T12:40:56;97704.78;;;15.55;53.76
9893;BME280;4985;49.092;8.542;2023-03-14T12:43:27;97718.03;;;15.55;53.77
9893;BME280;4985;49.092;8.542;2023-03-14T12:46:07;97716.19;;;15.55;53.76
9893;BME280;4985;49.092;8.542;2023-03-14T12:48:34;97725.75;;;15.56;53.74
9893;BME280;4985;49.092;8.542;2023-03-14T12:51:11;97723.09;;;15.56;53.74
9893;BME280;4985;49.092;8.542;2023-03-14T12:54:06;97718.59;;;15.57;53.73
9893;BME280;4985;49.092;8.542;2023-03-14T12:56:45;97730.00;;;15.57;53.72
9893;BME280;4985;49.092;8.542;2023-03-14T12:59:32;97725.50;;;15.58;53.72
9893;BME280;4985;49.092;8.542;2023-03-14T13:02:01;97736.94;;;15.58;53.71
9893;BME280;4985;49.092;8.542;2023-03-14T13:04:32;97745.94;;;15.57;53.70
9893;BME280;4985;49.092;8.542;2023-03-14T13:07:00;97756.53;;;15.57;53.73
9893;BME280;4985;49.092;8.542;2023-03-14T13:12:50;97781.22;;;15.58;53.73
9893;BME280;4985;49.092;8.542;2023-03-14T13:15:22;97789.97;;;15.58;53.75
9893;BME280;4985;49.092;8.542;2023-03-14T13:17:51;97809.56;;;15.57;53.72
9893;BME280;4985;49.092;8.542;2023-03-14T13:20:24;97798.72;;;15.59;53.76
9893;BME280;4985;49.092;8.542;2023-03-14T13:22:54;97810.97;;;15.60;53.73
9893;BME280;4985;49.092;8.542;2023-03-14T13:25:21;97825.06;;;15.60;53.73
9893;BME280;4985;49.092;8.542;2023-03-14T13:27:48;97825.84;;;15.61;53.70
9893;BME280;4985;49.092;8.542;2023-03-14T13:30:19;97835.66;;;15.60;53.66
9893;BME280;4985;49.092;8.542;2023-03-14T13:32:48;97842.22;;;15.58;53.64
9893;BME280;4985;49.092;8.542;2023-03-14T13:35:17;97852.59;;;15.59;53.69